This is the latest recevied weather packets stored in our database for station/object HG5CJW-10. If no packets are shown the sender has not sent any weather packets the latest 1 day(s).
| Time | Temp. | Humidity | Pressure | Rain* | Wind** | Luminosity | Snow |
|---|---|---|---|---|---|---|---|
| 1778097811 | 21.67° C | 47% | 1029.7 hPa | - | - | - | - |
| 1778096911 | 21.67° C | 46% | 1029.5 hPa | - | - | - | - |
| 1778096011 | 21.67° C | 46% | 1028.8 hPa | - | - | - | - |
| 1778095111 | 22.22° C | 46% | 1029.5 hPa | - | - | - | - |
| 1778094211 | 22.78° C | 45% | 1029.2 hPa | - | - | - | - |
| 1778093311 | 22.78° C | 45% | 1029.2 hPa | - | - | - | - |
| 1778087905 | 23.33° C | 42% | 1028.3 hPa | - | - | - | - |
| 1778087005 | 23.89° C | 41% | 1028.9 hPa | - | - | - | - |
| 1778086105 | 23.89° C | 41% | 1028.9 hPa | - | - | - | - |
| 1778085205 | 23.89° C | 40% | 1028.9 hPa | - | - | - | - |
| 1778084305 | 23.33° C | 40% | 1028.3 hPa | - | - | - | - |
| 1778083405 | 23.33° C | 41% | 1029 hPa | - | - | - | - |
| 1778082505 | 23.33° C | 40% | 1029.2 hPa | - | - | - | - |
| 1778080705 | 23.33° C | 40% | 1029.4 hPa | - | - | - | - |
| 1778068098 | 22.78° C | 45% | 1030.2 hPa | - | - | - | - |
| 1778066298 | 22.22° C | 47% | 1030.4 hPa | - | - | - | - |
| 1778064498 | 22.22° C | 47% | 1030.6 hPa | - | - | - | - |
| 1778063598 | 21.67° C | 49% | 1030.8 hPa | - | - | - | - |
| 1778062698 | 21.11° C | 49% | 1030.2 hPa | - | - | - | - |
| 1778059092 | 20.56° C | 52% | 1030.4 hPa | - | - | - | - |
| 1778058192 | 20.56° C | 52% | 1030.4 hPa | - | - | - | - |
| 1778057292 | 20° C | 52% | 1030.2 hPa | - | - | - | - |
| 1778056392 | 20° C | 53% | 1030.3 hPa | - | - | - | - |
| 1778055492 | 18.89° C | 54% | 1030.3 hPa | - | - | - | - |
| 1778054592 | 18.89° C | 56% | 1030.3 hPa | - | - | - | - |
* Rain since midnight (hover to see other rain measurements)
** Current wind speed in m/s (hover to see current wind gust speed)